sensor_id;sensor_type;location;lat;lon;timestamp;temperature;humidity
52044;DHT22;38053;53.100;6.078;2022-11-20T00:02:09;-0.70;99.90
52044;DHT22;38053;53.100;6.078;2022-11-20T00:04:35;-0.60;99.90
52044;DHT22;38053;53.100;6.078;2022-11-20T00:07:03;-0.60;99.90
52044;DHT22;38053;53.100;6.078;2022-11-20T00:09:29;-0.70;99.90
52044;DHT22;38053;53.100;6.078;2022-11-20T00:11:58;-0.70;99.90
52044;DHT22;38053;53.100;6.078;2022-11-20T00:14:24;-0.70;99.90
52044;DHT22;38053;53.100;6.078;2022-11-20T00:16:52;-0.70;99.90
52044;DHT22;38053;53.100;6.078;2022-11-20T00:19:18;-0.70;99.90
52044;DHT22;38053;53.100;6.078;2022-11-20T00:21:43;-0.70;99.90
52044;DHT22;38053;53.100;6.078;2022-11-20T00:24:16;-0.70;99.90
52044;DHT22;38053;53.100;6.078;2022-11-20T00:26:42;-0.70;99.90
52044;DHT22;38053;53.100;6.078;2022-11-20T00:29:09;-0.70;99.90
52044;DHT22;38053;53.100;6.078;2022-11-20T00:31:38;-0.70;99.90
52044;DHT22;38053;53.100;6.078;2022-11-20T00:34:04;-0.70;99.90
52044;DHT22;38053;53.100;6.078;2022-11-20T00:36:35;-0.70;99.90
52044;DHT22;38053;53.100;6.078;2022-11-20T00:39:01;-0.70;99.90
52044;DHT22;38053;53.100;6.078;2022-11-20T00:41:31;-0.70;99.90
52044;DHT22;38053;53.100;6.078;2022-11-20T00:43:57;-0.70;99.90
52044;DHT22;38053;53.100;6.078;2022-11-20T00:46:25;-0.70;99.90
52044;DHT22;38053;53.100;6.078;2022-11-20T00:48:51;-0.70;99.90
52044;DHT22;38053;53.100;6.078;2022-11-20T00:51:19;-0.70;99.90
52044;DHT22;38053;53.100;6.078;2022-11-20T00:53:45;-0.70;99.90
52044;DHT22;38053;53.100;6.078;2022-11-20T00:56:19;-0.80;99.90
52044;DHT22;38053;53.100;6.078;2022-11-20T00:58:47;-0.80;99.90
52044;DHT22;38053;53.100;6.078;2022-11-20T01:01:14;-0.80;99.90
52044;DHT22;38053;53.100;6.078;2022-11-20T01:03:42;-0.80;99.90
52044;DHT22;38053;53.100;6.078;2022-11-20T01:06:15;-0.80;99.90
52044;DHT22;38053;53.100;6.078;2022-11-20T01:08:41;-0.80;99.90
52044;DHT22;38053;53.100;6.078;2022-11-20T01:11:10;-0.80;99.90
52044;DHT22;38053;53.100;6.078;2022-11-20T01:13:36;-0.80;99.90
52044;DHT22;38053;53.100;6.078;2022-11-20T01:16:14;-0.90;99.90
52044;DHT22;38053;53.100;6.078;2022-11-20T01:18:43;-0.90;99.90
52044;DHT22;38053;53.100;6.078;2022-11-20T01:21:18;-0.90;99.90
52044;DHT22;38053;53.100;6.078;2022-11-20T01:23:45;-0.90;99.90
52044;DHT22;38053;53.100;6.078;2022-11-20T01:26:13;-0.90;99.90
52044;DHT22;38053;53.100;6.078;2022-11-20T01:28:40;-0.90;99.90
52044;DHT22;38053;53.100;6.078;2022-11-20T01:31:18;-0.90;99.90
52044;DHT22;38053;53.100;6.078;2022-11-20T01:33:46;-0.90;99.90
52044;DHT22;38053;53.100;6.078;2022-11-20T01:36:13;-0.80;99.90
52044;DHT22;38053;53.100;6.078;2022-11-20T01:38:47;-0.80;99.90
52044;DHT22;38053;53.100;6.078;2022-11-20T01:41:15;-0.80;99.90
52044;DHT22;38053;53.100;6.078;2022-11-20T01:43:59;-0.80;99.90
52044;DHT22;38053;53.100;6.078;2022-11-20T01:46:25;-0.80;99.90
52044;DHT22;38053;53.100;6.078;2022-11-20T01:48:59;-0.80;99.90
52044;DHT22;38053;53.100;6.078;2022-11-20T01:51:35;-0.80;99.90
52044;DHT22;38053;53.100;6.078;2022-11-20T01:54:08;-0.80;99.90
52044;DHT22;38053;53.100;6.078;2022-11-20T01:56:42;-0.80;99.90
52044;DHT22;38053;53.100;6.078;2022-11-20T01:59:15;-0.80;99.90
52044;DHT22;38053;53.100;6.078;2022-11-20T02:01:45;-0.80;99.90
52044;DHT22;38053;53.100;6.078;2022-11-20T02:04:12;-0.80;99.90
52044;DHT22;38053;53.100;6.078;2022-11-20T02:06:45;-0.90;99.90
52044;DHT22;38053;53.100;6.078;2022-11-20T02:09:16;-0.80;99.90
52044;DHT22;38053;53.100;6.078;2022-11-20T02:11:42;-0.80;99.90
52044;DHT22;38053;53.100;6.078;2022-11-20T02:14:08;-0.80;99.90
52044;DHT22;38053;53.100;6.078;2022-11-20T02:16:43;-0.80;99.90
52044;DHT22;38053;53.100;6.078;2022-11-20T02:21:50;-0.70;99.90
52044;DHT22;38053;53.100;6.078;2022-11-20T02:24:21;-0.70;99.90
52044;DHT22;38053;53.100;6.078;2022-11-20T02:26:54;-0.70;99.90
52044;DHT22;38053;53.100;6.078;2022-11-20T02:29:32;-0.70;99.90
52044;DHT22;38053;53.100;6.078;2022-11-20T02:32:00;-0.60;99.90
52044;DHT22;38053;53.100;6.078;2022-11-20T02:34:27;-0.60;99.90
52044;DHT22;38053;53.100;6.078;2022-11-20T02:36:53;-0.60;99.90
52044;DHT22;38053;53.100;6.078;2022-11-20T02:39:20;-0.60;99.90
52044;DHT22;38053;53.100;6.078;2022-11-20T02:41:46;-0.50;99.90
52044;DHT22;38053;53.100;6.078;2022-11-20T02:44:12;-0.50;99.90
52044;DHT22;38053;53.100;6.078;2022-11-20T02:46:38;-0.50;99.90
52044;DHT22;38053;53.100;6.078;2022-11-20T02:49:04;-0.50;99.90
52044;DHT22;38053;53.100;6.078;2022-11-20T02:51:30;-0.50;99.90
52044;DHT22;38053;53.100;6.078;2022-11-20T02:53:57;-0.50;99.90
52044;DHT22;38053;53.100;6.078;2022-11-20T02:56:25;-0.40;99.90
52044;DHT22;38053;53.100;6.078;2022-11-20T02:58:54;-0.40;99.90
52044;DHT22;38053;53.100;6.078;2022-11-20T03:01:22;-0.40;99.90
52044;DHT22;38053;53.100;6.078;2022-11-20T03:03:48;-0.40;99.90
52044;DHT22;38053;53.100;6.078;2022-11-20T03:06:17;-0.40;99.90
52044;DHT22;38053;53.100;6.078;2022-11-20T03:08:43;-0.40;99.90
52044;DHT22;38053;53.100;6.078;2022-11-20T03:11:09;-0.40;99.90
52044;DHT22;38053;53.100;6.078;2022-11-20T03:13:35;-0.40;99.90
52044;DHT22;38053;53.100;6.078;2022-11-20T03:16:09;-0.40;99.90
52044;DHT22;38053;53.100;6.078;2022-11-20T03:18:35;-0.30;99.90
52044;DHT22;38053;53.100;6.078;2022-11-20T03:21:01;-0.30;99.90
52044;DHT22;38053;53.100;6.078;2022-11-20T03:23:29;-0.30;99.90
52044;DHT22;38053;53.100;6.078;2022-11-20T03:25:56;-0.30;99.90
52044;DHT22;38053;53.100;6.078;2022-11-20T03:28:22;-0.30;99.90
52044;DHT22;38053;53.100;6.078;2022-11-20T03:30:47;-0.30;99.90
52044;DHT22;38053;53.100;6.078;2022-11-20T03:33:13;-0.20;99.90
52044;DHT22;38053;53.100;6.078;2022-11-20T03:35:39;-0.20;99.90
52044;DHT22;38053;53.100;6.078;2022-11-20T03:38:04;-0.20;99.90
52044;DHT22;38053;53.100;6.078;2022-11-20T03:40:31;-0.20;99.90
52044;DHT22;38053;53.100;6.078;2022-11-20T03:42:56;-0.20;99.90
52044;DHT22;38053;53.100;6.078;2022-11-20T03:45:22;-0.20;99.90
52044;DHT22;38053;53.100;6.078;2022-11-20T03:47:48;-0.20;99.90
52044;DHT22;38053;53.100;6.078;2022-11-20T03:50:14;-0.10;99.90
52044;DHT22;38053;53.100;6.078;2022-11-20T03:52:40;-0.10;99.90
52044;DHT22;38053;53.100;6.078;2022-11-20T03:55:07;-0.10;99.90
52044;DHT22;38053;53.100;6.078;2022-11-20T03:57:33;-0.10;99.90
52044;DHT22;38053;53.100;6.078;2022-11-20T03:59:58;-0.10;99.90
52044;DHT22;38053;53.100;6.078;2022-11-20T04:02:24;-0.10;99.90
52044;DHT22;38053;53.100;6.078;2022-11-20T04:04:50;-0.10;99.90
52044;DHT22;38053;53.100;6.078;2022-11-20T04:07:15;-0.10;99.90
52044;DHT22;38053;53.100;6.078;2022-11-20T04:09:41;0.00;99.90
52044;DHT22;38053;53.100;6.078;2022-11-20T04:12:10;-0.10;99.90
52044;DHT22;38053;53.100;6.078;2022-11-20T04:14:35;-0.10;99.90
52044;DHT22;38053;53.100;6.078;2022-11-20T04:17:04;-0.10;99.90
52044;DHT22;38053;53.100;6.078;2022-11-20T04:19:29;-0.10;99.90
52044;DHT22;38053;53.100;6.078;2022-11-20T04:21:55;-0.10;99.90
52044;DHT22;38053;53.100;6.078;2022-11-20T04:24:21;-0.10;99.90
52044;DHT22;38053;53.100;6.078;2022-11-20T04:26:46;-0.10;99.90
52044;DHT22;38053;53.100;6.078;2022-11-20T04:29:12;-0.20;99.90
52044;DHT22;38053;53.100;6.078;2022-11-20T04:31:38;-0.30;99.90
52044;DHT22;38053;53.100;6.078;2022-11-20T04:34:05;-0.30;99.90
52044;DHT22;38053;53.100;6.078;2022-11-20T04:36:32;-0.40;99.90
52044;DHT22;38053;53.100;6.078;2022-11-20T04:39:03;-0.40;99.90
52044;DHT22;38053;53.100;6.078;2022-11-20T04:41:34;-0.50;99.90
52044;DHT22;38053;53.100;6.078;2022-11-20T04:44:02;-0.50;99.90
52044;DHT22;38053;53.100;6.078;2022-11-20T04:46:33;-0.50;99.90
52044;DHT22;38053;53.100;6.078;2022-11-20T04:48:59;-0.60;99.90
52044;DHT22;38053;53.100;6.078;2022-11-20T04:51:26;-0.60;99.90
52044;DHT22;38053;53.100;6.078;2022-11-20T04:53:52;-0.70;99.90
52044;DHT22;38053;53.100;6.078;2022-11-20T04:56:18;-0.70;99.90
52044;DHT22;38053;53.100;6.078;2022-11-20T04:58:44;-0.80;99.90
52044;DHT22;38053;53.100;6.078;2022-11-20T05:01:18;-0.80;99.90
52044;DHT22;38053;53.100;6.078;2022-11-20T05:03:44;-0.80;99.90
52044;DHT22;38053;53.100;6.078;2022-11-20T05:06:15;-0.90;99.90
52044;DHT22;38053;53.100;6.078;2022-11-20T05:08:41;-0.90;99.90
52044;DHT22;38053;53.100;6.078;2022-11-20T05:11:31;-0.90;99.90
52044;DHT22;38053;53.100;6.078;2022-11-20T05:13:58;-0.90;99.90
52044;DHT22;38053;53.100;6.078;2022-11-20T05:16:25;-0.90;99.90
52044;DHT22;38053;53.100;6.078;2022-11-20T05:18:54;-0.90;99.90
52044;DHT22;38053;53.100;6.078;2022-11-20T05:21:20;-0.90;99.90
52044;DHT22;38053;53.100;6.078;2022-11-20T05:23:46;-0.90;99.90
52044;DHT22;38053;53.100;6.078;2022-11-20T05:26:17;-0.90;99.90
52044;DHT22;38053;53.100;6.078;2022-11-20T05:28:44;-0.90;99.90
52044;DHT22;38053;53.100;6.078;2022-11-20T05:31:12;-1.00;99.90
52044;DHT22;38053;53.100;6.078;2022-11-20T05:33:40;-1.00;99.90
52044;DHT22;38053;53.100;6.078;2022-11-20T05:36:07;-1.00;99.90
52044;DHT22;38053;53.100;6.078;2022-11-20T05:38:33;-1.00;99.90
52044;DHT22;38053;53.100;6.078;2022-11-20T05:41:13;-1.00;99.90
52044;DHT22;38053;53.100;6.078;2022-11-20T05:43:41;-1.00;99.90
52044;DHT22;38053;53.100;6.078;2022-11-20T05:46:09;-0.90;99.90
52044;DHT22;38053;53.100;6.078;2022-11-20T05:48:36;-0.90;99.90
52044;DHT22;38053;53.100;6.078;2022-11-20T05:51:04;-0.90;99.90
52044;DHT22;38053;53.100;6.078;2022-11-20T05:53:34;-0.80;99.90
52044;DHT22;38053;53.100;6.078;2022-11-20T05:56:02;-0.80;99.90
52044;DHT22;38053;53.100;6.078;2022-11-20T05:58:28;-0.80;99.90
52044;DHT22;38053;53.100;6.078;2022-11-20T06:00:53;-0.80;99.90
52044;DHT22;38053;53.100;6.078;2022-11-20T06:03:19;-0.70;99.90
52044;DHT22;38053;53.100;6.078;2022-11-20T06:05:45;-0.70;99.90
52044;DHT22;38053;53.100;6.078;2022-11-20T06:08:11;-0.60;99.90
52044;DHT22;38053;53.100;6.078;2022-11-20T06:10:36;-0.60;99.90
52044;DHT22;38053;53.100;6.078;2022-11-20T06:13:02;-0.60;99.90
52044;DHT22;38053;53.100;6.078;2022-11-20T06:15:28;-0.60;99.90
52044;DHT22;38053;53.100;6.078;2022-11-20T06:17:54;-0.60;99.90
52044;DHT22;38053;53.100;6.078;2022-11-20T06:20:20;-0.60;99.90
52044;DHT22;38053;53.100;6.078;2022-11-20T06:22:46;-0.50;99.90
52044;DHT22;38053;53.100;6.078;2022-11-20T06:25:12;-0.50;99.90
52044;DHT22;38053;53.100;6.078;2022-11-20T06:27:38;-0.50;99.90
52044;DHT22;38053;53.100;6.078;2022-11-20T06:30:04;-0.50;99.90
52044;DHT22;38053;53.100;6.078;2022-11-20T06:32:30;-0.50;99.90
52044;DHT22;38053;53.100;6.078;2022-11-20T06:34:55;-0.50;99.90
52044;DHT22;38053;53.100;6.078;2022-11-20T06:37:21;-0.50;99.90
52044;DHT22;38053;53.100;6.078;2022-11-20T06:39:47;-0.60;99.90
52044;DHT22;38053;53.100;6.078;2022-11-20T06:42:13;-0.60;99.90
52044;DHT22;38053;53.100;6.078;2022-11-20T06:44:38;-0.60;99.90
52044;DHT22;38053;53.100;6.078;2022-11-20T06:47:04;-0.60;99.90
52044;DHT22;38053;53.100;6.078;2022-11-20T06:49:30;-0.70;99.90
52044;DHT22;38053;53.100;6.078;2022-11-20T06:51:55;-0.70;99.90
52044;DHT22;38053;53.100;6.078;2022-11-20T06:54:21;-0.70;99.90
52044;DHT22;38053;53.100;6.078;2022-11-20T06:56:47;-0.70;99.90
52044;DHT22;38053;53.100;6.078;2022-11-20T06:59:13;-0.70;99.90
52044;DHT22;38053;53.100;6.078;2022-11-20T07:01:39;-0.80;99.90
52044;DHT22;38053;53.100;6.078;2022-11-20T07:04:05;-0.70;99.90
52044;DHT22;38053;53.100;6.078;2022-11-20T07:06:31;-0.80;99.90
52044;DHT22;38053;53.100;6.078;2022-11-20T07:08:57;-0.80;99.90
52044;DHT22;38053;53.100;6.078;2022-11-20T07:11:23;-0.70;99.90
52044;DHT22;38053;53.100;6.078;2022-11-20T07:13:49;-0.80;99.90
52044;DHT22;38053;53.100;6.078;2022-11-20T07:16:15;-0.70;99.90
52044;DHT22;38053;53.100;6.078;2022-11-20T07:18:40;-0.70;99.90
52044;DHT22;38053;53.100;6.078;2022-11-20T07:21:08;-0.70;99.90
52044;DHT22;38053;53.100;6.078;2022-11-20T07:23:35;-0.70;99.90
52044;DHT22;38053;53.100;6.078;2022-11-20T07:26:09;-0.70;99.90
52044;DHT22;38053;53.100;6.078;2022-11-20T07:28:35;-0.60;99.90
52044;DHT22;38053;53.100;6.078;2022-11-20T07:31:01;-0.60;99.90
52044;DHT22;38053;53.100;6.078;2022-11-20T07:33:27;-0.60;99.90
52044;DHT22;38053;53.100;6.078;2022-11-20T07:35:53;-0.60;99.90
52044;DHT22;38053;53.100;6.078;2022-11-20T07:38:18;-0.60;99.90
52044;DHT22;38053;53.100;6.078;2022-11-20T07:40:44;-0.50;99.90
52044;DHT22;38053;53.100;6.078;2022-11-20T07:43:10;-0.60;99.90
52044;DHT22;38053;53.100;6.078;2022-11-20T07:45:35;-0.50;99.90
52044;DHT22;38053;53.100;6.078;2022-11-20T07:48:01;-0.50;99.90
52044;DHT22;38053;53.100;6.078;2022-11-20T07:50:27;-0.50;99.90
52044;DHT22;38053;53.100;6.078;2022-11-20T07:53:00;-0.50;99.90
52044;DHT22;38053;53.100;6.078;2022-11-20T07:55:26;-0.40;99.90
52044;DHT22;38053;53.100;6.078;2022-11-20T07:57:55;-0.40;99.90
52044;DHT22;38053;53.100;6.078;2022-11-20T08:00:22;-0.40;99.90
52044;DHT22;38053;53.100;6.078;2022-11-20T08:02:48;-0.40;99.90
52044;DHT22;38053;53.100;6.078;2022-11-20T08:05:13;-0.40;99.90
52044;DHT22;38053;53.100;6.078;2022-11-20T08:07:40;-0.30;99.90
52044;DHT22;38053;53.100;6.078;2022-11-20T08:10:08;-0.30;99.90
52044;DHT22;38053;53.100;6.078;2022-11-20T08:12:34;-0.30;99.90
52044;DHT22;38053;53.100;6.078;2022-11-20T08:15:18;-0.30;99.90
52044;DHT22;38053;53.100;6.078;2022-11-20T08:17:44;-0.20;99.90
52044;DHT22;38053;53.100;6.078;2022-11-20T08:20:09;-0.20;99.90
52044;DHT22;38053;53.100;6.078;2022-11-20T08:22:35;-0.20;99.90
52044;DHT22;38053;53.100;6.078;2022-11-20T08:25:01;-0.20;99.90
52044;DHT22;38053;53.100;6.078;2022-11-20T08:27:27;-0.10;99.90
52044;DHT22;38053;53.100;6.078;2022-11-20T08:29:52;-0.10;99.90
52044;DHT22;38053;53.100;6.078;2022-11-20T08:32:18;0.00;99.90
52044;DHT22;38053;53.100;6.078;2022-11-20T08:34:44;0.00;99.90
52044;DHT22;38053;53.100;6.078;2022-11-20T08:37:09;0.00;99.90
52044;DHT22;38053;53.100;6.078;2022-11-20T08:39:35;0.00;99.90
52044;DHT22;38053;53.100;6.078;2022-11-20T08:42:01;0.00;99.90
52044;DHT22;38053;53.100;6.078;2022-11-20T08:44:26;0.10;99.90
52044;DHT22;38053;53.100;6.078;2022-11-20T08:46:52;0.10;99.90
52044;DHT22;38053;53.100;6.078;2022-11-20T08:49:18;0.20;99.90
52044;DHT22;38053;53.100;6.078;2022-11-20T08:51:44;0.20;99.90
52044;DHT22;38053;53.100;6.078;2022-11-20T08:54:10;0.20;99.90
52044;DHT22;38053;53.100;6.078;2022-11-20T08:56:36;0.30;99.90
52044;DHT22;38053;53.100;6.078;2022-11-20T08:59:01;0.30;99.90
52044;DHT22;38053;53.100;6.078;2022-11-20T09:01:28;0.40;99.90
52044;DHT22;38053;53.100;6.078;2022-11-20T09:03:57;0.50;99.90
52044;DHT22;38053;53.100;6.078;2022-11-20T09:06:25;0.50;99.90
52044;DHT22;38053;53.100;6.078;2022-11-20T09:08:54;0.60;99.90
52044;DHT22;38053;53.100;6.078;2022-11-20T09:11:21;0.60;99.90
52044;DHT22;38053;53.100;6.078;2022-11-20T09:13:47;0.70;99.90
52044;DHT22;38053;53.100;6.078;2022-11-20T09:16:13;0.70;99.90
52044;DHT22;38053;53.100;6.078;2022-11-20T09:18:38;0.70;99.90
52044;DHT22;38053;53.100;6.078;2022-11-20T09:21:08;0.80;99.90
52044;DHT22;38053;53.100;6.078;2022-11-20T09:23:36;0.80;99.90
52044;DHT22;38053;53.100;6.078;2022-11-20T09:26:07;0.90;99.90
52044;DHT22;38053;53.100;6.078;2022-11-20T09:28:34;1.00;99.90
52044;DHT22;38053;53.100;6.078;2022-11-20T09:31:00;1.00;99.90
52044;DHT22;38053;53.100;6.078;2022-11-20T09:33:26;1.10;99.90
52044;DHT22;38053;53.100;6.078;2022-11-20T09:35:52;1.10;99.90
52044;DHT22;38053;53.100;6.078;2022-11-20T09:38:18;1.10;99.90
52044;DHT22;38053;53.100;6.078;2022-11-20T09:41:05;1.20;99.90
52044;DHT22;38053;53.100;6.078;2022-11-20T09:46:25;1.30;99.90
52044;DHT22;38053;53.100;6.078;2022-11-20T09:51:39;1.30;99.90
52044;DHT22;38053;53.100;6.078;2022-11-20T09:54:16;1.40;99.90
52044;DHT22;38053;53.100;6.078;2022-11-20T09:56:46;1.40;99.90
52044;DHT22;38053;53.100;6.078;2022-11-20T10:01:55;1.50;99.90
52044;DHT22;38053;53.100;6.078;2022-11-20T10:04:21;1.50;99.90
52044;DHT22;38053;53.100;6.078;2022-11-20T10:10:01;1.60;99.90
52044;DHT22;38053;53.100;6.078;2022-11-20T10:15:45;1.70;99.90
52044;DHT22;38053;53.100;6.078;2022-11-20T10:20:58;1.80;99.90
52044;DHT22;38053;53.100;6.078;2022-11-20T10:23:57;1.90;99.90
52044;DHT22;38053;53.100;6.078;2022-11-20T10:26:44;2.00;99.90
52044;DHT22;38053;53.100;6.078;2022-11-20T10:29:19;2.10;99.90
52044;DHT22;38053;53.100;6.078;2022-11-20T10:32:16;2.10;99.90
52044;DHT22;38053;53.100;6.078;2022-11-20T10:34:57;2.20;99.90
52044;DHT22;38053;53.100;6.078;2022-11-20T10:37:26;2.30;99.90
52044;DHT22;38053;53.100;6.078;2022-11-20T10:42:46;2.60;99.90
52044;DHT22;38053;53.100;6.078;2022-11-20T10:45:38;2.70;99.90
52044;DHT22;38053;53.100;6.078;2022-11-20T10:51:13;2.70;99.90
52044;DHT22;38053;53.100;6.078;2022-11-20T10:53:56;2.70;99.90
52044;DHT22;38053;53.100;6.078;2022-11-20T10:56:39;2.70;99.90
52044;DHT22;38053;53.100;6.078;2022-11-20T10:59:38;2.70;99.90
52044;DHT22;38053;53.100;6.078;2022-11-20T11:02:24;2.80;99.90
52044;DHT22;38053;53.100;6.078;2022-11-20T11:04:51;2.80;99.90
52044;DHT22;38053;53.100;6.078;2022-11-20T11:07:25;2.90;99.90
52044;DHT22;38053;53.100;6.078;2022-11-20T11:09:54;3.00;99.90
52044;DHT22;38053;53.100;6.078;2022-11-20T11:12:23;3.10;99.90
52044;DHT22;38053;53.100;6.078;2022-11-20T11:14:51;3.20;99.90
52044;DHT22;38053;53.100;6.078;2022-11-20T11:17:55;3.20;99.90
52044;DHT22;38053;53.100;6.078;2022-11-20T11:20:26;3.30;99.90
52044;DHT22;38053;53.100;6.078;2022-11-20T11:22:57;3.40;99.90
52044;DHT22;38053;53.100;6.078;2022-11-20T11:29:17;3.40;99.90
52044;DHT22;38053;53.100;6.078;2022-11-20T11:32:07;3.40;99.90
52044;DHT22;38053;53.100;6.078;2022-11-20T11:38:15;3.50;99.90
52044;DHT22;38053;53.100;6.078;2022-11-20T11:44:25;3.60;99.90
52044;DHT22;38053;53.100;6.078;2022-11-20T11:47:45;3.60;99.90
52044;DHT22;38053;53.100;6.078;2022-11-20T11:51:02;3.60;99.90
52044;DHT22;38053;53.100;6.078;2022-11-20T11:53:43;3.60;99.90
52044;DHT22;38053;53.100;6.078;2022-11-20T11:56:19;3.60;99.90
52044;DHT22;38053;53.100;6.078;2022-11-20T11:59:06;3.60;99.90
52044;DHT22;38053;53.100;6.078;2022-11-20T12:02:02;3.60;99.90
52044;DHT22;38053;53.100;6.078;2022-11-20T12:14:07;3.90;99.90
52044;DHT22;38053;53.100;6.078;2022-11-20T12:16:39;3.80;99.90
52044;DHT22;38053;53.100;6.078;2022-11-20T12:19:13;3.60;99.90
52044;DHT22;38053;53.100;6.078;2022-11-20T12:25:04;3.50;99.90
52044;DHT22;38053;53.100;6.078;2022-11-20T12:36:56;3.80;99.90
52044;DHT22;38053;53.100;6.078;2022-11-20T12:43:27;3.80;99.90
52044;DHT22;38053;53.100;6.078;2022-11-20T12:46:45;3.70;99.90
52044;DHT22;38053;53.100;6.078;2022-11-20T12:49:26;3.70;99.90
52044;DHT22;38053;53.100;6.078;2022-11-20T12:57:58;3.40;99.90
52044;DHT22;38053;53.100;6.078;2022-11-20T13:00:42;3.40;99.90
52044;DHT22;38053;53.100;6.078;2022-11-20T13:06:28;3.40;99.90
52044;DHT22;38053;53.100;6.078;2022-11-20T13:09:09;3.40;99.90
52044;DHT22;38053;53.100;6.078;2022-11-20T13:14:34;3.40;99.90
52044;DHT22;38053;53.100;6.078;2022-11-20T13:17:10;3.40;99.90
52044;DHT22;38053;53.100;6.078;2022-11-20T13:19:58;3.40;99.90
52044;DHT22;38053;53.100;6.078;2022-11-20T13:22:51;3.40;99.90
52044;DHT22;38053;53.100;6.078;2022-11-20T13:25:46;3.40;99.90
52044;DHT22;38053;53.100;6.078;2022-11-20T13:30:57;3.30;99.90
52044;DHT22;38053;53.100;6.078;2022-11-20T13:33:37;3.30;99.90
52044;DHT22;38053;53.100;6.078;2022-11-20T13:36:25;3.20;99.90
52044;DHT22;38053;53.100;6.078;2022-11-20T13:39:05;3.20;99.90
52044;DHT22;38053;53.100;6.078;2022-11-20T13:47:48;3.10;99.90
52044;DHT22;38053;53.100;6.078;2022-11-20T13:50:17;3.10;99.90
52044;DHT22;38053;53.100;6.078;2022-11-20T13:53:06;3.10;99.90
52044;DHT22;38053;53.100;6.078;2022-11-20T13:55:54;3.00;99.90
52044;DHT22;38053;53.100;6.078;2022-11-20T14:01:46;2.90;99.90
52044;DHT22;38053;53.100;6.078;2022-11-20T14:04:38;2.90;99.90
52044;DHT22;38053;53.100;6.078;2022-11-20T14:07:12;2.90;99.90
52044;DHT22;38053;53.100;6.078;2022-11-20T14:09:55;2.90;99.90
52044;DHT22;38053;53.100;6.078;2022-11-20T14:12:30;2.80;99.90
52044;DHT22;38053;53.100;6.078;2022-11-20T14:14:59;2.80;99.90
52044;DHT22;38053;53.100;6.078;2022-11-20T14:17:33;2.80;99.90
52044;DHT22;38053;53.100;6.078;2022-11-20T14:20:28;2.80;99.90
52044;DHT22;38053;53.100;6.078;2022-11-20T14:23:01;2.70;99.90
52044;DHT22;38053;53.100;6.078;2022-11-20T14:25:28;2.70;99.90
52044;DHT22;38053;53.100;6.078;2022-11-20T14:28:00;2.70;99.90
52044;DHT22;38053;53.100;6.078;2022-11-20T14:30:42;2.70;99.90
52044;DHT22;38053;53.100;6.078;2022-11-20T14:33:13;2.60;99.90
52044;DHT22;38053;53.100;6.078;2022-11-20T14:35:53;2.60;99.90
52044;DHT22;38053;53.100;6.078;2022-11-20T14:38:31;2.60;99.90
52044;DHT22;38053;53.100;6.078;2022-11-20T14:41:14;2.60;99.90
52044;DHT22;38053;53.100;6.078;2022-11-20T14:43:46;2.60;99.90
52044;DHT22;38053;53.100;6.078;2022-11-20T14:46:12;2.60;99.90
52044;DHT22;38053;53.100;6.078;2022-11-20T14:48:49;2.60;99.90
52044;DHT22;38053;53.100;6.078;2022-11-20T14:51:36;2.50;99.90
52044;DHT22;38053;53.100;6.078;2022-11-20T14:54:18;2.50;99.90
52044;DHT22;38053;53.100;6.078;2022-11-20T14:57:01;2.50;99.90
52044;DHT22;38053;53.100;6.078;2022-11-20T14:59:32;2.40;99.90
52044;DHT22;38053;53.100;6.078;2022-11-20T15:02:02;2.40;99.90
52044;DHT22;38053;53.100;6.078;2022-11-20T15:04:29;2.40;99.90
52044;DHT22;38053;53.100;6.078;2022-11-20T15:06:57;2.40;99.90
52044;DHT22;38053;53.100;6.078;2022-11-20T15:09:23;2.40;99.90
52044;DHT22;38053;53.100;6.078;2022-11-20T15:11:55;2.40;99.90
52044;DHT22;38053;53.100;6.078;2022-11-20T15:14:22;2.30;99.90
52044;DHT22;38053;53.100;6.078;2022-11-20T15:16:49;2.30;99.90
52044;DHT22;38053;53.100;6.078;2022-11-20T15:19:23;2.30;99.90
52044;DHT22;38053;53.100;6.078;2022-11-20T15:21:50;2.30;99.90
52044;DHT22;38053;53.100;6.078;2022-11-20T15:24:16;2.30;99.90
52044;DHT22;38053;53.100;6.078;2022-11-20T15:26:42;2.30;99.90
52044;DHT22;38053;53.100;6.078;2022-11-20T15:29:14;2.30;99.90
52044;DHT22;38053;53.100;6.078;2022-11-20T15:31:40;2.20;99.90
52044;DHT22;38053;53.100;6.078;2022-11-20T15:34:13;2.20;99.90
52044;DHT22;38053;53.100;6.078;2022-11-20T15:36:39;2.20;99.90
52044;DHT22;38053;53.100;6.078;2022-11-20T15:39:06;2.20;99.90
52044;DHT22;38053;53.100;6.078;2022-11-20T15:41:35;2.20;99.90
52044;DHT22;38053;53.100;6.078;2022-11-20T15:44:02;2.20;99.90
52044;DHT22;38053;53.100;6.078;2022-11-20T15:46:31;2.10;99.90
52044;DHT22;38053;53.100;6.078;2022-11-20T15:49:00;2.10;99.90
52044;DHT22;38053;53.100;6.078;2022-11-20T15:51:35;2.10;99.90
52044;DHT22;38053;53.100;6.078;2022-11-20T15:54:05;2.00;99.90
52044;DHT22;38053;53.100;6.078;2022-11-20T15:56:34;2.10;99.90
52044;DHT22;38053;53.100;6.078;2022-11-20T15:59:00;2.00;99.90
52044;DHT22;38053;53.100;6.078;2022-11-20T16:01:26;2.10;99.90
52044;DHT22;38053;53.100;6.078;2022-11-20T16:03:51;2.10;99.90
52044;DHT22;38053;53.100;6.078;2022-11-20T16:06:17;2.00;99.90
52044;DHT22;38053;53.100;6.078;2022-11-20T16:08:43;2.00;99.90
52044;DHT22;38053;53.100;6.078;2022-11-20T16:11:12;2.00;99.90
52044;DHT22;38053;53.100;6.078;2022-11-20T16:13:38;2.00;99.90
52044;DHT22;38053;53.100;6.078;2022-11-20T16:16:25;2.00;99.90
52044;DHT22;38053;53.100;6.078;2022-11-20T16:18:54;2.00;99.90
52044;DHT22;38053;53.100;6.078;2022-11-20T16:21:20;2.00;99.90
52044;DHT22;38053;53.100;6.078;2022-11-20T16:23:45;2.00;99.90
52044;DHT22;38053;53.100;6.078;2022-11-20T16:26:16;2.00;99.90
52044;DHT22;38053;53.100;6.078;2022-11-20T16:28:43;2.00;99.90
52044;DHT22;38053;53.100;6.078;2022-11-20T16:31:13;2.00;99.90
52044;DHT22;38053;53.100;6.078;2022-11-20T16:33:40;2.00;99.90
52044;DHT22;38053;53.100;6.078;2022-11-20T16:36:13;2.00;99.90
52044;DHT22;38053;53.100;6.078;2022-11-20T16:38:41;2.00;99.90
52044;DHT22;38053;53.100;6.078;2022-11-20T16:41:07;1.90;99.90
52044;DHT22;38053;53.100;6.078;2022-11-20T16:43:55;1.90;99.90
52044;DHT22;38053;53.100;6.078;2022-11-20T16:46:29;1.90;99.90
52044;DHT22;38053;53.100;6.078;2022-11-20T16:49:00;1.90;99.90
52044;DHT22;38053;53.100;6.078;2022-11-20T16:51:27;1.90;99.90
52044;DHT22;38053;53.100;6.078;2022-11-20T16:53:54;1.90;99.90
52044;DHT22;38053;53.100;6.078;2022-11-20T16:56:24;1.80;99.90
52044;DHT22;38053;53.100;6.078;2022-11-20T16:58:52;1.90;99.90
52044;DHT22;38053;53.100;6.078;2022-11-20T17:01:28;1.90;99.90
52044;DHT22;38053;53.100;6.078;2022-11-20T17:04:12;1.80;99.90
52044;DHT22;38053;53.100;6.078;2022-11-20T17:06:41;1.80;99.90
52044;DHT22;38053;53.100;6.078;2022-11-20T17:09:09;1.80;99.90
52044;DHT22;38053;53.100;6.078;2022-11-20T17:11:35;1.80;99.90
52044;DHT22;38053;53.100;6.078;2022-11-20T17:14:01;1.80;99.90
52044;DHT22;38053;53.100;6.078;2022-11-20T17:16:32;1.80;99.90
52044;DHT22;38053;53.100;6.078;2022-11-20T17:19:08;1.80;99.90
52044;DHT22;38053;53.100;6.078;2022-11-20T17:21:45;1.80;99.90
52044;DHT22;38053;53.100;6.078;2022-11-20T17:24:25;1.80;99.90
52044;DHT22;38053;53.100;6.078;2022-11-20T17:27:28;1.80;99.90